sensor_id;sensor_type;location;lat;lon;timestamp;P1;durP1;ratioP1;P2;durP2;ratioP2
64595;SDS011;51003;51.628;6.670;2023-04-19T00:01:13;18.60;;;12.37;;
64595;SDS011;51003;51.628;6.670;2023-04-19T00:03:38;22.53;;;11.90;;
64595;SDS011;51003;51.628;6.670;2023-04-19T00:06:03;16.43;;;10.80;;
64595;SDS011;51003;51.628;6.670;2023-04-19T00:08:29;18.13;;;11.80;;
64595;SDS011;51003;51.628;6.670;2023-04-19T00:10:54;18.97;;;11.40;;
64595;SDS011;51003;51.628;6.670;2023-04-19T00:13:20;17.47;;;11.90;;
64595;SDS011;51003;51.628;6.670;2023-04-19T00:15:45;19.60;;;12.33;;
64595;SDS011;51003;51.628;6.670;2023-04-19T00:18:11;17.57;;;11.40;;
64595;SDS011;51003;51.628;6.670;2023-04-19T00:20:37;16.17;;;11.97;;
64595;SDS011;51003;51.628;6.670;2023-04-19T00:23:03;18.70;;;11.63;;
64595;SDS011;51003;51.628;6.670;2023-04-19T00:25:28;18.40;;;11.83;;
64595;SDS011;51003;51.628;6.670;2023-04-19T00:27:55;17.00;;;12.20;;
64595;SDS011;51003;51.628;6.670;2023-04-19T00:30:21;19.30;;;12.60;;
64595;SDS011;51003;51.628;6.670;2023-04-19T00:32:46;16.33;;;11.53;;
64595;SDS011;51003;51.628;6.670;2023-04-19T00:35:12;16.03;;;12.00;;
64595;SDS011;51003;51.628;6.670;2023-04-19T00:37:37;17.07;;;11.83;;
64595;SDS011;51003;51.628;6.670;2023-04-19T00:40:03;20.23;;;11.90;;
64595;SDS011;51003;51.628;6.670;2023-04-19T00:42:29;15.40;;;11.30;;
64595;SDS011;51003;51.628;6.670;2023-04-19T00:44:55;19.30;;;12.10;;
64595;SDS011;51003;51.628;6.670;2023-04-19T00:47:20;17.70;;;11.73;;
64595;SDS011;51003;51.628;6.670;2023-04-19T00:49:46;18.37;;;11.57;;
64595;SDS011;51003;51.628;6.670;2023-04-19T00:52:11;18.03;;;12.43;;
64595;SDS011;51003;51.628;6.670;2023-04-19T00:54:37;17.87;;;11.97;;
64595;SDS011;51003;51.628;6.670;2023-04-19T00:57:03;17.23;;;12.40;;
64595;SDS011;51003;51.628;6.670;2023-04-19T00:59:28;17.07;;;12.17;;
64595;SDS011;51003;51.628;6.670;2023-04-19T01:01:54;17.67;;;12.10;;
64595;SDS011;51003;51.628;6.670;2023-04-19T01:04:20;22.50;;;12.53;;
64595;SDS011;51003;51.628;6.670;2023-04-19T01:06:46;17.50;;;11.17;;
64595;SDS011;51003;51.628;6.670;2023-04-19T01:09:12;18.23;;;12.00;;
64595;SDS011;51003;51.628;6.670;2023-04-19T01:11:37;16.90;;;11.30;;
64595;SDS011;51003;51.628;6.670;2023-04-19T01:14:03;17.63;;;11.70;;
64595;SDS011;51003;51.628;6.670;2023-04-19T01:16:28;18.37;;;11.40;;
64595;SDS011;51003;51.628;6.670;2023-04-19T01:18:53;16.30;;;11.13;;
64595;SDS011;51003;51.628;6.670;2023-04-19T01:21:19;15.30;;;11.57;;
64595;SDS011;51003;51.628;6.670;2023-04-19T01:23:46;18.37;;;12.90;;
64595;SDS011;51003;51.628;6.670;2023-04-19T01:26:11;18.80;;;11.23;;
64595;SDS011;51003;51.628;6.670;2023-04-19T01:28:37;16.00;;;12.00;;
64595;SDS011;51003;51.628;6.670;2023-04-19T01:31:02;15.07;;;11.53;;
64595;SDS011;51003;51.628;6.670;2023-04-19T01:33:28;14.80;;;10.77;;
64595;SDS011;51003;51.628;6.670;2023-04-19T01:35:53;18.20;;;11.20;;
64595;SDS011;51003;51.628;6.670;2023-04-19T01:38:19;19.40;;;11.50;;
64595;SDS011;51003;51.628;6.670;2023-04-19T01:40:44;16.80;;;11.23;;
64595;SDS011;51003;51.628;6.670;2023-04-19T01:43:13;18.83;;;12.00;;
64595;SDS011;51003;51.628;6.670;2023-04-19T01:45:40;15.63;;;11.60;;
64595;SDS011;51003;51.628;6.670;2023-04-19T01:48:06;19.47;;;11.40;;
64595;SDS011;51003;51.628;6.670;2023-04-19T01:50:31;16.60;;;12.00;;
64595;SDS011;51003;51.628;6.670;2023-04-19T01:52:57;21.33;;;12.53;;
64595;SDS011;51003;51.628;6.670;2023-04-19T01:55:23;16.50;;;11.27;;
64595;SDS011;51003;51.628;6.670;2023-04-19T01:57:48;17.43;;;12.30;;
64595;SDS011;51003;51.628;6.670;2023-04-19T02:00:14;16.60;;;11.53;;
64595;SDS011;51003;51.628;6.670;2023-04-19T02:02:42;17.50;;;11.47;;
64595;SDS011;51003;51.628;6.670;2023-04-19T02:05:07;19.93;;;11.63;;
64595;SDS011;51003;51.628;6.670;2023-04-19T02:07:33;19.90;;;12.60;;
64595;SDS011;51003;51.628;6.670;2023-04-19T02:09:59;18.10;;;12.00;;
64595;SDS011;51003;51.628;6.670;2023-04-19T02:12:27;17.80;;;11.70;;
64595;SDS011;51003;51.628;6.670;2023-04-19T02:14:54;15.77;;;11.67;;
64595;SDS011;51003;51.628;6.670;2023-04-19T02:17:23;20.43;;;12.80;;
64595;SDS011;51003;51.628;6.670;2023-04-19T02:19:48;18.13;;;11.03;;
64595;SDS011;51003;51.628;6.670;2023-04-19T02:22:14;19.87;;;12.10;;
64595;SDS011;51003;51.628;6.670;2023-04-19T02:24:39;14.03;;;10.37;;
64595;SDS011;51003;51.628;6.670;2023-04-19T02:27:05;16.43;;;10.50;;
64595;SDS011;51003;51.628;6.670;2023-04-19T02:29:30;14.40;;;9.40;;
64595;SDS011;51003;51.628;6.670;2023-04-19T02:31:56;13.37;;;8.83;;
64595;SDS011;51003;51.628;6.670;2023-04-19T02:34:22;13.87;;;10.13;;
64595;SDS011;51003;51.628;6.670;2023-04-19T02:36:47;15.50;;;10.30;;
64595;SDS011;51003;51.628;6.670;2023-04-19T02:39:12;12.53;;;8.90;;
64595;SDS011;51003;51.628;6.670;2023-04-19T02:41:37;15.30;;;9.67;;
64595;SDS011;51003;51.628;6.670;2023-04-19T02:44:03;11.10;;;8.53;;
64595;SDS011;51003;51.628;6.670;2023-04-19T02:46:28;12.00;;;9.00;;
64595;SDS011;51003;51.628;6.670;2023-04-19T02:48:54;11.80;;;8.80;;
64595;SDS011;51003;51.628;6.670;2023-04-19T02:51:19;10.20;;;7.83;;
64595;SDS011;51003;51.628;6.670;2023-04-19T02:53:45;13.00;;;8.50;;
64595;SDS011;51003;51.628;6.670;2023-04-19T02:56:11;13.97;;;8.10;;
64595;SDS011;51003;51.628;6.670;2023-04-19T02:58:36;9.80;;;8.43;;
64595;SDS011;51003;51.628;6.670;2023-04-19T03:01:02;19.37;;;8.00;;
64595;SDS011;51003;51.628;6.670;2023-04-19T03:03:27;12.13;;;7.73;;
64595;SDS011;51003;51.628;6.670;2023-04-19T03:05:52;12.13;;;8.30;;
64595;SDS011;51003;51.628;6.670;2023-04-19T03:08:18;10.10;;;7.40;;
64595;SDS011;51003;51.628;6.670;2023-04-19T03:10:43;10.83;;;8.30;;
64595;SDS011;51003;51.628;6.670;2023-04-19T03:13:09;9.63;;;7.83;;
64595;SDS011;51003;51.628;6.670;2023-04-19T03:15:35;10.60;;;7.83;;
64595;SDS011;51003;51.628;6.670;2023-04-19T03:18:00;10.03;;;7.70;;
64595;SDS011;51003;51.628;6.670;2023-04-19T03:20:26;13.43;;;7.30;;
64595;SDS011;51003;51.628;6.670;2023-04-19T03:22:51;10.13;;;7.50;;
64595;SDS011;51003;51.628;6.670;2023-04-19T03:25:16;12.37;;;7.70;;
64595;SDS011;51003;51.628;6.670;2023-04-19T03:27:42;10.43;;;7.10;;
64595;SDS011;51003;51.628;6.670;2023-04-19T03:30:09;10.60;;;6.93;;
64595;SDS011;51003;51.628;6.670;2023-04-19T03:32:36;8.90;;;6.80;;
64595;SDS011;51003;51.628;6.670;2023-04-19T03:35:01;10.93;;;7.17;;
64595;SDS011;51003;51.628;6.670;2023-04-19T03:37:27;7.50;;;6.10;;
64595;SDS011;51003;51.628;6.670;2023-04-19T03:39:52;9.40;;;6.20;;
64595;SDS011;51003;51.628;6.670;2023-04-19T03:42:18;9.07;;;6.57;;
64595;SDS011;51003;51.628;6.670;2023-04-19T03:44:43;7.73;;;5.93;;
64595;SDS011;51003;51.628;6.670;2023-04-19T03:47:08;7.63;;;6.20;;
64595;SDS011;51003;51.628;6.670;2023-04-19T03:49:34;13.83;;;6.20;;
64595;SDS011;51003;51.628;6.670;2023-04-19T03:52:00;6.77;;;5.83;;
64595;SDS011;51003;51.628;6.670;2023-04-19T03:54:25;7.50;;;6.30;;
64595;SDS011;51003;51.628;6.670;2023-04-19T03:56:51;9.43;;;6.30;;
64595;SDS011;51003;51.628;6.670;2023-04-19T03:59:16;8.10;;;6.60;;
64595;SDS011;51003;51.628;6.670;2023-04-19T04:01:42;7.93;;;6.43;;
64595;SDS011;51003;51.628;6.670;2023-04-19T04:04:07;9.00;;;6.20;;
64595;SDS011;51003;51.628;6.670;2023-04-19T04:06:33;7.00;;;5.83;;
64595;SDS011;51003;51.628;6.670;2023-04-19T04:08:59;6.60;;;5.80;;
64595;SDS011;51003;51.628;6.670;2023-04-19T04:11:25;8.77;;;6.27;;
64595;SDS011;51003;51.628;6.670;2023-04-19T04:13:50;8.53;;;6.87;;
64595;SDS011;51003;51.628;6.670;2023-04-19T04:16:15;6.67;;;5.90;;
64595;SDS011;51003;51.628;6.670;2023-04-19T04:18:41;8.70;;;6.00;;
64595;SDS011;51003;51.628;6.670;2023-04-19T04:21:06;8.00;;;5.80;;
64595;SDS011;51003;51.628;6.670;2023-04-19T04:23:31;7.57;;;6.00;;
64595;SDS011;51003;51.628;6.670;2023-04-19T04:26:00;8.47;;;7.00;;
64595;SDS011;51003;51.628;6.670;2023-04-19T04:28:27;6.33;;;5.37;;
64595;SDS011;51003;51.628;6.670;2023-04-19T04:30:53;7.80;;;6.27;;
64595;SDS011;51003;51.628;6.670;2023-04-19T04:33:24;10.80;;;6.53;;
64595;SDS011;51003;51.628;6.670;2023-04-19T04:35:51;8.00;;;6.50;;
64595;SDS011;51003;51.628;6.670;2023-04-19T04:38:17;7.63;;;6.00;;
64595;SDS011;51003;51.628;6.670;2023-04-19T04:40:43;9.43;;;6.20;;
64595;SDS011;51003;51.628;6.670;2023-04-19T04:43:08;7.50;;;5.90;;
64595;SDS011;51003;51.628;6.670;2023-04-19T04:45:34;13.33;;;6.13;;
64595;SDS011;51003;51.628;6.670;2023-04-19T04:48:01;7.27;;;6.00;;
64595;SDS011;51003;51.628;6.670;2023-04-19T04:50:27;7.07;;;5.70;;
64595;SDS011;51003;51.628;6.670;2023-04-19T04:52:52;8.03;;;5.67;;
64595;SDS011;51003;51.628;6.670;2023-04-19T04:55:17;6.90;;;5.93;;
64595;SDS011;51003;51.628;6.670;2023-04-19T04:57:43;8.30;;;6.40;;
64595;SDS011;51003;51.628;6.670;2023-04-19T05:00:08;7.57;;;6.00;;
64595;SDS011;51003;51.628;6.670;2023-04-19T05:02:35;9.33;;;5.70;;
64595;SDS011;51003;51.628;6.670;2023-04-19T05:05:01;7.53;;;6.03;;
64595;SDS011;51003;51.628;6.670;2023-04-19T05:07:27;7.10;;;6.00;;
64595;SDS011;51003;51.628;6.670;2023-04-19T05:09:52;8.63;;;6.50;;
64595;SDS011;51003;51.628;6.670;2023-04-19T05:12:18;7.60;;;5.93;;
64595;SDS011;51003;51.628;6.670;2023-04-19T05:14:43;10.10;;;6.60;;
64595;SDS011;51003;51.628;6.670;2023-04-19T05:17:08;10.73;;;7.40;;
64595;SDS011;51003;51.628;6.670;2023-04-19T05:19:34;8.90;;;6.23;;
64595;SDS011;51003;51.628;6.670;2023-04-19T05:21:59;10.03;;;6.40;;
64595;SDS011;51003;51.628;6.670;2023-04-19T05:24:24;10.70;;;6.57;;
64595;SDS011;51003;51.628;6.670;2023-04-19T05:26:50;9.63;;;6.60;;
64595;SDS011;51003;51.628;6.670;2023-04-19T05:29:15;19.63;;;7.90;;
64595;SDS011;51003;51.628;6.670;2023-04-19T08:13:34;6.00;;;3.20;;
64595;SDS011;51003;51.628;6.670;2023-04-19T08:16:00;3.60;;;3.30;;
64595;SDS011;51003;51.628;6.670;2023-04-19T08:18:25;3.97;;;3.50;;
64595;SDS011;51003;51.628;6.670;2023-04-19T08:30:37;5.47;;;3.77;;
64595;SDS011;51003;51.628;6.670;2023-04-19T08:33:02;6.30;;;3.50;;
64595;SDS011;51003;51.628;6.670;2023-04-19T08:35:28;7.80;;;3.27;;
64595;SDS011;51003;51.628;6.670;2023-04-19T08:37:53;4.90;;;3.63;;
64595;SDS011;51003;51.628;6.670;2023-04-19T08:40:19;4.60;;;3.50;;
64595;SDS011;51003;51.628;6.670;2023-04-19T08:42:44;6.40;;;3.50;;
64595;SDS011;51003;51.628;6.670;2023-04-19T08:45:10;4.00;;;3.60;;
64595;SDS011;51003;51.628;6.670;2023-04-19T08:47:37;6.60;;;3.50;;
64595;SDS011;51003;51.628;6.670;2023-04-19T08:50:04;3.67;;;3.37;;
64595;SDS011;51003;51.628;6.670;2023-04-19T08:52:34;3.80;;;3.40;;
64595;SDS011;51003;51.628;6.670;2023-04-19T08:55:02;4.00;;;3.13;;
64595;SDS011;51003;51.628;6.670;2023-04-19T08:57:29;5.67;;;3.20;;
64595;SDS011;51003;51.628;6.670;2023-04-19T08:59:56;3.60;;;3.27;;
64595;SDS011;51003;51.628;6.670;2023-04-19T09:02:22;11.80;;;3.47;;
64595;SDS011;51003;51.628;6.670;2023-04-19T09:04:48;9.00;;;2.93;;
64595;SDS011;51003;51.628;6.670;2023-04-19T09:07:23;4.63;;;2.60;;
64595;SDS011;51003;51.628;6.670;2023-04-19T09:10:03;2.57;;;2.37;;
64595;SDS011;51003;51.628;6.670;2023-04-19T09:12:30;11.47;;;2.97;;
64595;SDS011;51003;51.628;6.670;2023-04-19T09:14:55;8.00;;;3.00;;
64595;SDS011;51003;51.628;6.670;2023-04-19T09:17:21;6.83;;;2.57;;
64595;SDS011;51003;51.628;6.670;2023-04-19T09:19:46;7.80;;;2.57;;
64595;SDS011;51003;51.628;6.670;2023-04-19T09:22:13;9.87;;;2.70;;
64595;SDS011;51003;51.628;6.670;2023-04-19T09:24:39;11.93;;;2.50;;
64595;SDS011;51003;51.628;6.670;2023-04-19T09:27:04;8.90;;;2.50;;
64595;SDS011;51003;51.628;6.670;2023-04-19T09:29:30;7.20;;;2.33;;
64595;SDS011;51003;51.628;6.670;2023-04-19T09:31:56;6.07;;;4.70;;
64595;SDS011;51003;51.628;6.670;2023-04-19T09:34:22;4.27;;;3.07;;
64595;SDS011;51003;51.628;6.670;2023-04-19T09:36:48;3.90;;;2.50;;
64595;SDS011;51003;51.628;6.670;2023-04-19T09:39:14;4.30;;;2.17;;
64595;SDS011;51003;51.628;6.670;2023-04-19T09:41:53;3.50;;;2.40;;
64595;SDS011;51003;51.628;6.670;2023-04-19T09:44:18;6.27;;;2.53;;
64595;SDS011;51003;51.628;6.670;2023-04-19T09:46:44;12.60;;;2.80;;
64595;SDS011;51003;51.628;6.670;2023-04-19T09:51:41;4.47;;;2.80;;
64595;SDS011;51003;51.628;6.670;2023-04-19T09:54:08;2.90;;;2.53;;
64595;SDS011;51003;51.628;6.670;2023-04-19T09:56:34;3.53;;;2.47;;
64595;SDS011;51003;51.628;6.670;2023-04-19T09:59:01;2.40;;;2.20;;
64595;SDS011;51003;51.628;6.670;2023-04-19T10:01:27;4.00;;;2.93;;
64595;SDS011;51003;51.628;6.670;2023-04-19T10:03:53;3.13;;;2.70;;
64595;SDS011;51003;51.628;6.670;2023-04-19T10:06:19;6.03;;;2.90;;
64595;SDS011;51003;51.628;6.670;2023-04-19T10:08:45;5.10;;;2.53;;
64595;SDS011;51003;51.628;6.670;2023-04-19T10:11:12;4.57;;;2.70;;
64595;SDS011;51003;51.628;6.670;2023-04-19T10:13:37;3.47;;;2.57;;
64595;SDS011;51003;51.628;6.670;2023-04-19T10:16:03;4.30;;;3.20;;
64595;SDS011;51003;51.628;6.670;2023-04-19T10:18:29;3.33;;;2.90;;
64595;SDS011;51003;51.628;6.670;2023-04-19T10:20:58;4.10;;;2.77;;
64595;SDS011;51003;51.628;6.670;2023-04-19T10:23:25;3.93;;;2.57;;
64595;SDS011;51003;51.628;6.670;2023-04-19T10:25:55;3.60;;;2.60;;
64595;SDS011;51003;51.628;6.670;2023-04-19T10:28:22;5.10;;;2.90;;
64595;SDS011;51003;51.628;6.670;2023-04-19T10:30:54;3.10;;;2.90;;
64595;SDS011;51003;51.628;6.670;2023-04-19T10:33:26;3.63;;;3.07;;
64595;SDS011;51003;51.628;6.670;2023-04-19T10:35:59;5.17;;;2.97;;
64595;SDS011;51003;51.628;6.670;2023-04-19T10:41:04;7.07;;;3.10;;
64595;SDS011;51003;51.628;6.670;2023-04-19T10:43:35;3.80;;;3.27;;
64595;SDS011;51003;51.628;6.670;2023-04-19T10:46:12;5.40;;;3.20;;
64595;SDS011;51003;51.628;6.670;2023-04-19T10:48:39;3.23;;;2.90;;
64595;SDS011;51003;51.628;6.670;2023-04-19T10:51:11;7.20;;;3.10;;
64595;SDS011;51003;51.628;6.670;2023-04-19T10:53:42;4.50;;;2.90;;
64595;SDS011;51003;51.628;6.670;2023-04-19T11:01:33;8.83;;;3.00;;
64595;SDS011;51003;51.628;6.670;2023-04-19T11:03:59;4.33;;;3.93;;
64595;SDS011;51003;51.628;6.670;2023-04-19T11:06:25;3.40;;;3.10;;
64595;SDS011;51003;51.628;6.670;2023-04-19T11:08:52;3.33;;;3.10;;
64595;SDS011;51003;51.628;6.670;2023-04-19T11:11:21;6.37;;;3.20;;
64595;SDS011;51003;51.628;6.670;2023-04-19T11:13:47;5.03;;;3.20;;
64595;SDS011;51003;51.628;6.670;2023-04-19T11:16:13;3.33;;;3.13;;
64595;SDS011;51003;51.628;6.670;2023-04-19T11:18:38;4.20;;;3.23;;
64595;SDS011;51003;51.628;6.670;2023-04-19T11:21:04;3.00;;;2.70;;
64595;SDS011;51003;51.628;6.670;2023-04-19T11:23:29;6.30;;;2.90;;
64595;SDS011;51003;51.628;6.670;2023-04-19T11:25:55;5.10;;;3.30;;
64595;SDS011;51003;51.628;6.670;2023-04-19T11:28:20;10.43;;;3.23;;
64595;SDS011;51003;51.628;6.670;2023-04-19T11:30:46;3.47;;;2.90;;
64595;SDS011;51003;51.628;6.670;2023-04-19T11:33:12;3.30;;;3.10;;
64595;SDS011;51003;51.628;6.670;2023-04-19T11:35:37;4.30;;;3.20;;
64595;SDS011;51003;51.628;6.670;2023-04-19T11:38:03;3.73;;;3.10;;
64595;SDS011;51003;51.628;6.670;2023-04-19T11:40:29;3.23;;;2.93;;
64595;SDS011;51003;51.628;6.670;2023-04-19T11:43:04;4.83;;;2.87;;
64595;SDS011;51003;51.628;6.670;2023-04-19T11:45:31;3.30;;;3.00;;
64595;SDS011;51003;51.628;6.670;2023-04-19T11:47:58;4.07;;;3.00;;
64595;SDS011;51003;51.628;6.670;2023-04-19T11:53:18;3.43;;;2.87;;
64595;SDS011;51003;51.628;6.670;2023-04-19T11:55:46;3.97;;;3.30;;
64595;SDS011;51003;51.628;6.670;2023-04-19T12:00:56;6.50;;;3.70;;
64595;SDS011;51003;51.628;6.670;2023-04-19T12:03:28;3.23;;;2.93;;
64595;SDS011;51003;51.628;6.670;2023-04-19T12:05:58;6.67;;;3.70;;
64595;SDS011;51003;51.628;6.670;2023-04-19T12:08:37;4.00;;;3.60;;
64595;SDS011;51003;51.628;6.670;2023-04-19T12:11:04;6.73;;;3.23;;
64595;SDS011;51003;51.628;6.670;2023-04-19T12:13:30;4.90;;;3.83;;
64595;SDS011;51003;51.628;6.670;2023-04-19T12:15:56;3.40;;;3.20;;
64595;SDS011;51003;51.628;6.670;2023-04-19T12:18:22;6.00;;;3.10;;
64595;SDS011;51003;51.628;6.670;2023-04-19T12:20:48;3.93;;;3.43;;
64595;SDS011;51003;51.628;6.670;2023-04-19T12:23:14;3.67;;;3.37;;
64595;SDS011;51003;51.628;6.670;2023-04-19T12:25:41;4.50;;;3.37;;
64595;SDS011;51003;51.628;6.670;2023-04-19T12:28:07;5.70;;;3.07;;
64595;SDS011;51003;51.628;6.670;2023-04-19T12:30:36;3.40;;;3.10;;
64595;SDS011;51003;51.628;6.670;2023-04-19T12:33:01;8.63;;;3.70;;
64595;SDS011;51003;51.628;6.670;2023-04-19T12:35:27;3.80;;;3.50;;
64595;SDS011;51003;51.628;6.670;2023-04-19T12:37:53;6.93;;;4.07;;
64595;SDS011;51003;51.628;6.670;2023-04-19T12:40:19;5.20;;;3.23;;
64595;SDS011;51003;51.628;6.670;2023-04-19T12:42:45;4.30;;;3.33;;
64595;SDS011;51003;51.628;6.670;2023-04-19T12:45:14;5.63;;;3.90;;
64595;SDS011;51003;51.628;6.670;2023-04-19T12:47:40;5.93;;;3.90;;
64595;SDS011;51003;51.628;6.670;2023-04-19T12:50:06;4.10;;;3.70;;
64595;SDS011;51003;51.628;6.670;2023-04-19T12:52:32;7.37;;;3.80;;
64595;SDS011;51003;51.628;6.670;2023-04-19T12:54:57;4.70;;;3.57;;
64595;SDS011;51003;51.628;6.670;2023-04-19T12:57:23;3.73;;;3.43;;
64595;SDS011;51003;51.628;6.670;2023-04-19T12:59:48;5.57;;;3.90;;
64595;SDS011;51003;51.628;6.670;2023-04-19T13:02:14;4.40;;;4.03;;
64595;SDS011;51003;51.628;6.670;2023-04-19T13:04:40;4.07;;;3.73;;
64595;SDS011;51003;51.628;6.670;2023-04-19T13:07:06;6.70;;;3.83;;
64595;SDS011;51003;51.628;6.670;2023-04-19T13:09:31;8.93;;;4.00;;
64595;SDS011;51003;51.628;6.670;2023-04-19T13:11:57;4.30;;;3.93;;
64595;SDS011;51003;51.628;6.670;2023-04-19T13:14:23;8.07;;;3.90;;
64595;SDS011;51003;51.628;6.670;2023-04-19T13:16:49;4.00;;;3.70;;
64595;SDS011;51003;51.628;6.670;2023-04-19T13:19:15;4.50;;;4.10;;
64595;SDS011;51003;51.628;6.670;2023-04-19T13:21:41;4.30;;;3.83;;
64595;SDS011;51003;51.628;6.670;2023-04-19T13:24:06;7.50;;;3.83;;
64595;SDS011;51003;51.628;6.670;2023-04-19T13:26:32;4.47;;;3.50;;
64595;SDS011;51003;51.628;6.670;2023-04-19T13:28:58;10.50;;;4.33;;
64595;SDS011;51003;51.628;6.670;2023-04-19T13:31:24;6.87;;;4.17;;
64595;SDS011;51003;51.628;6.670;2023-04-19T13:33:50;17.20;;;4.67;;
64595;SDS011;51003;51.628;6.670;2023-04-19T13:36:16;6.03;;;3.83;;
64595;SDS011;51003;51.628;6.670;2023-04-19T13:38:42;4.50;;;3.50;;
64595;SDS011;51003;51.628;6.670;2023-04-19T13:41:08;7.20;;;3.80;;
64595;SDS011;51003;51.628;6.670;2023-04-19T13:43:33;4.50;;;4.10;;
64595;SDS011;51003;51.628;6.670;2023-04-19T13:45:59;4.83;;;4.43;;
64595;SDS011;51003;51.628;6.670;2023-04-19T13:48:25;4.07;;;3.67;;
64595;SDS011;51003;51.628;6.670;2023-04-19T13:50:54;7.17;;;4.00;;
64595;SDS011;51003;51.628;6.670;2023-04-19T13:53:20;6.70;;;3.87;;
64595;SDS011;51003;51.628;6.670;2023-04-19T13:55:45;4.33;;;3.93;;
64595;SDS011;51003;51.628;6.670;2023-04-19T13:58:11;4.33;;;3.60;;
64595;SDS011;51003;51.628;6.670;2023-04-19T14:00:36;4.00;;;3.70;;
64595;SDS011;51003;51.628;6.670;2023-04-19T14:03:02;4.83;;;4.20;;
64595;SDS011;51003;51.628;6.670;2023-04-19T14:05:28;4.33;;;4.00;;
64595;SDS011;51003;51.628;6.670;2023-04-19T14:07:54;4.30;;;3.90;;
64595;SDS011;51003;51.628;6.670;2023-04-19T14:10:19;5.50;;;4.03;;
64595;SDS011;51003;51.628;6.670;2023-04-19T14:12:45;4.10;;;3.80;;
64595;SDS011;51003;51.628;6.670;2023-04-19T14:15:11;3.57;;;3.37;;
64595;SDS011;51003;51.628;6.670;2023-04-19T14:17:37;5.07;;;4.00;;
64595;SDS011;51003;51.628;6.670;2023-04-19T14:20:03;4.13;;;3.60;;
64595;SDS011;51003;51.628;6.670;2023-04-19T14:22:30;4.47;;;4.00;;
64595;SDS011;51003;51.628;6.670;2023-04-19T14:24:56;3.80;;;3.50;;
64595;SDS011;51003;51.628;6.670;2023-04-19T14:27:22;5.57;;;3.80;;
64595;SDS011;51003;51.628;6.670;2023-04-19T14:29:48;4.57;;;3.70;;
64595;SDS011;51003;51.628;6.670;2023-04-19T14:32:14;4.10;;;3.80;;
64595;SDS011;51003;51.628;6.670;2023-04-19T14:34:40;4.33;;;3.70;;
64595;SDS011;51003;51.628;6.670;2023-04-19T14:37:05;3.87;;;3.60;;
64595;SDS011;51003;51.628;6.670;2023-04-19T14:39:31;3.57;;;3.33;;
64595;SDS011;51003;51.628;6.670;2023-04-19T14:41:57;3.70;;;3.40;;
64595;SDS011;51003;51.628;6.670;2023-04-19T14:44:23;6.90;;;3.40;;
64595;SDS011;51003;51.628;6.670;2023-04-19T14:46:49;7.53;;;3.67;;
64595;SDS011;51003;51.628;6.670;2023-04-19T14:49:14;4.07;;;3.77;;
64595;SDS011;51003;51.628;6.670;2023-04-19T14:51:40;3.87;;;3.57;;
64595;SDS011;51003;51.628;6.670;2023-04-19T14:54:05;5.73;;;3.33;;
64595;SDS011;51003;51.628;6.670;2023-04-19T14:56:31;5.70;;;4.07;;
64595;SDS011;51003;51.628;6.670;2023-04-19T14:58:57;6.00;;;3.90;;
64595;SDS011;51003;51.628;6.670;2023-04-19T15:01:23;4.20;;;3.80;;
64595;SDS011;51003;51.628;6.670;2023-04-19T15:03:48;5.80;;;3.77;;
64595;SDS011;51003;51.628;6.670;2023-04-19T15:06:14;6.00;;;3.30;;
64595;SDS011;51003;51.628;6.670;2023-04-19T15:08:40;3.07;;;2.87;;
64595;SDS011;51003;51.628;6.670;2023-04-19T15:11:07;3.27;;;3.03;;
64595;SDS011;51003;51.628;6.670;2023-04-19T15:13:33;3.63;;;3.33;;
64595;SDS011;51003;51.628;6.670;2023-04-19T15:15:59;4.60;;;4.20;;
64595;SDS011;51003;51.628;6.670;2023-04-19T15:18:27;4.20;;;3.70;;
64595;SDS011;51003;51.628;6.670;2023-04-19T15:20:53;3.90;;;3.30;;
64595;SDS011;51003;51.628;6.670;2023-04-19T15:23:21;4.30;;;3.50;;
64595;SDS011;51003;51.628;6.670;2023-04-19T15:25:47;3.70;;;3.40;;
64595;SDS011;51003;51.628;6.670;2023-04-19T15:28:13;3.63;;;3.30;;
64595;SDS011;51003;51.628;6.670;2023-04-19T15:30:39;3.80;;;3.50;;
64595;SDS011;51003;51.628;6.670;2023-04-19T15:33:04;3.90;;;3.33;;
64595;SDS011;51003;51.628;6.670;2023-04-19T15:35:31;4.20;;;3.80;;
64595;SDS011;51003;51.628;6.670;2023-04-19T15:37:56;3.60;;;3.40;;
64595;SDS011;51003;51.628;6.670;2023-04-19T15:40:22;3.73;;;3.43;;
64595;SDS011;51003;51.628;6.670;2023-04-19T15:42:48;3.93;;;3.07;;
64595;SDS011;51003;51.628;6.670;2023-04-19T15:45:14;4.23;;;3.50;;
64595;SDS011;51003;51.628;6.670;2023-04-19T15:47:40;3.50;;;3.20;;
64595;SDS011;51003;51.628;6.670;2023-04-19T15:50:06;2.90;;;2.70;;
64595;SDS011;51003;51.628;6.670;2023-04-19T15:52:32;4.40;;;2.77;;
64595;SDS011;51003;51.628;6.670;2023-04-19T15:54:57;3.00;;;2.80;;
64595;SDS011;51003;51.628;6.670;2023-04-19T15:57:23;2.97;;;2.77;;
64595;SDS011;51003;51.628;6.670;2023-04-19T15:59:49;3.10;;;2.90;;
64595;SDS011;51003;51.628;6.670;2023-04-19T16:02:15;3.10;;;2.70;;
64595;SDS011;51003;51.628;6.670;2023-04-19T16:04:41;2.83;;;2.63;;
64595;SDS011;51003;51.628;6.670;2023-04-19T16:07:06;3.67;;;2.60;;
64595;SDS011;51003;51.628;6.670;2023-04-19T16:09:32;4.20;;;3.10;;
64595;SDS011;51003;51.628;6.670;2023-04-19T16:11:58;3.40;;;3.10;;
64595;SDS011;51003;51.628;6.670;2023-04-19T16:14:23;3.50;;;3.20;;
64595;SDS011;51003;51.628;6.670;2023-04-19T16:16:49;7.90;;;3.00;;
64595;SDS011;51003;51.628;6.670;2023-04-19T16:19:15;14.73;;;2.87;;
64595;SDS011;51003;51.628;6.670;2023-04-19T16:21:40;2.97;;;2.67;;
64595;SDS011;51003;51.628;6.670;2023-04-19T16:24:06;3.33;;;3.03;;
64595;SDS011;51003;51.628;6.670;2023-04-19T16:26:32;4.57;;;2.83;;
64595;SDS011;51003;51.628;6.670;2023-04-19T16:28:58;3.80;;;3.03;;
64595;SDS011;51003;51.628;6.670;2023-04-19T16:31:24;2.90;;;2.60;;
64595;SDS011;51003;51.628;6.670;2023-04-19T16:33:50;3.00;;;2.67;;
64595;SDS011;51003;51.628;6.670;2023-04-19T16:36:16;3.17;;;2.97;;
64595;SDS011;51003;51.628;6.670;2023-04-19T16:38:42;2.77;;;2.57;;
64595;SDS011;51003;51.628;6.670;2023-04-19T16:41:07;4.43;;;3.00;;
64595;SDS011;51003;51.628;6.670;2023-04-19T16:43:33;3.27;;;2.97;;
64595;SDS011;51003;51.628;6.670;2023-04-19T16:45:58;3.20;;;2.90;;
64595;SDS011;51003;51.628;6.670;2023-04-19T16:48:24;3.23;;;2.70;;
64595;SDS011;51003;51.628;6.670;2023-04-19T16:50:50;3.93;;;2.73;;
64595;SDS011;51003;51.628;6.670;2023-04-19T16:53:16;3.10;;;2.90;;
64595;SDS011;51003;51.628;6.670;2023-04-19T16:55:42;4.33;;;2.97;;
64595;SDS011;51003;51.628;6.670;2023-04-19T16:58:07;6.50;;;2.73;;
64595;SDS011;51003;51.628;6.670;2023-04-19T17:00:32;7.80;;;2.80;;
64595;SDS011;51003;51.628;6.670;2023-04-19T17:02:57;6.23;;;2.70;;
64595;SDS011;51003;51.628;6.670;2023-04-19T17:05:24;2.97;;;2.60;;
64595;SDS011;51003;51.628;6.670;2023-04-19T17:07:50;3.40;;;2.30;;
64595;SDS011;51003;51.628;6.670;2023-04-19T17:10:15;5.33;;;2.97;;
64595;SDS011;51003;51.628;6.670;2023-04-19T17:12:41;3.83;;;3.00;;
64595;SDS011;51003;51.628;6.670;2023-04-19T17:15:09;2.90;;;2.60;;
64595;SDS011;51003;51.628;6.670;2023-04-19T17:17:37;4.13;;;2.90;;
64595;SDS011;51003;51.628;6.670;2023-04-19T17:20:03;2.93;;;2.73;;
64595;SDS011;51003;51.628;6.670;2023-04-19T17:22:30;3.57;;;2.87;;
64595;SDS011;51003;51.628;6.670;2023-04-19T17:24:55;4.80;;;2.77;;
64595;SDS011;51003;51.628;6.670;2023-04-19T17:27:22;4.40;;;3.40;;
64595;SDS011;51003;51.628;6.670;2023-04-19T17:29:48;4.83;;;3.07;;
64595;SDS011;51003;51.628;6.670;2023-04-19T17:32:14;3.77;;;3.00;;
64595;SDS011;51003;51.628;6.670;2023-04-19T17:34:40;3.30;;;3.00;;
64595;SDS011;51003;51.628;6.670;2023-04-19T17:37:06;6.20;;;3.03;;
64595;SDS011;51003;51.628;6.670;2023-04-19T17:39:31;5.60;;;3.03;;
64595;SDS011;51003;51.628;6.670;2023-04-19T17:41:57;3.17;;;2.87;;